Terminal Aerodrome Forecast
Issued by NWS Sterling, VA

Current Version | Previous Version | Graphics & Text | Print | Product List | Glossary On
Versions: 1 2 3 4 5 6 7 8 9 10 11 12 13 14 15 16 17 18 19 20 21 22 23 24 25 26 27 28 29 30
000
FTUS41 KLWX 031729
TAFIAD
TAF
KIAD 031729Z 0318/0424 15006KT P6SM SCT050 BKN100
     FM040400 13006KT 5SM -SHRA OVC050
     FM040700 11005KT 3SM -SHRA OVC040
     FM041000 09004KT 6SM -SHRA OVC010
     FM041400 33004KT 3SM -SHRA OVC015
     FM041800 34006KT P6SM OVC035=

USA.gov is the U.S. government's official web portal to all federal, state and local government web resources and services.